METAR stanice u blizini

 

LYBE - Beograd / Surčin, Srbija
Ažurirano: 16/07/2020 02:00
Vedro
Vedro
 Pravac vetra S
Vetar: S 6 km/h
Temperatura: 20°C
Tačka rose: 15°C
Vlažnost: 73%
Pritisak: 1013 hPa
Pregled: Vedro
Vidljivost: greater than 10 km
2020/07/16 00:00 LYBE 160000Z 01003KT CAVOK 20/15 Q1013 NOSIG
LYBT - Beograd / Batajnica, Srbija
Ažurirano: 16/07/2020 02:00
Vedro
Vedro
 Pravac vetra varies
Vetar: varies 2 km/h
Temperatura: 18°C
Tačka rose: 16°C
Vlažnost: 88%
Pritisak: 1013 hPa
Pregled: Vedro
Vidljivost: greater than 10 km
2020/07/16 00:00 LYBT 160000Z VRB01KT CAVOK 18/16 Q1013 NOSIG
LYVR - Vršac, Srbija
Ažurirano: 16/07/2020 02:00
Vedro
Vedro
 Pravac vetra varies
Vetar: varies 2 km/h
Temperatura: 13°C
Tačka rose: 12°C
Vlažnost: 94%
Pritisak: 1013 hPa
Pregled: Vedro
Vidljivost: greater than 10 km
2020/07/16 00:00 LYVR 160000Z AUTO VRB01KT CAVOK 13/12 Q1013
 
LYKV - Lađevci, Srbija
Ažurirano: 16/07/2020 02:00
Vedro
Vedro
 Pravac vetra calm
Vetar: Tišina
Temperatura: 15°C
Tačka rose: 14°C
Vlažnost: 94%
Pritisak: 1014 hPa
Pregled: Vedro
Vidljivost: greater than 10 km
2020/07/16 00:00 LYKV 160000Z 00000KT CAVOK 15/14 Q1014 NOSIG
LYNI - Niš, Srbija
Ažurirano: 16/07/2020 02:00
Vedro
Vedro
 Pravac vetra SI
Vetar: SI 4 km/h
Temperatura: 19°C
Tačka rose: 15°C
Vlažnost: 78%
Pritisak: 1014 hPa
Pregled: Vedro
Vidljivost: greater than 10 km
2020/07/16 00:00 LYNI 160000Z 04002KT CAVOK 19/15 Q1014 NOSIG
BKPR - Priština, Srbija
Ažurirano: 16/07/2020 02:00
Partly Cloudy
Partly Cloudy
 Pravac vetra ZSZ
Vetar: ZSZ 7 km/h
Temperatura: 17°C
Tačka rose: 7°C
Vlažnost: 52%
Pritisak: 1015 hPa
Oblaci: Partly Cloudy
Vidljivost: 10 km
Cloud details: Partly Cloudy 2438 m
2020/07/16 00:00 BKPR 160000Z 30004KT 9999 SCT080 17/07 Q1015 NOSIG
 
LHPP - Pecs / Pogany, Hungary
Ažurirano: 15/07/2020 19:45
NOT Current
Vedro
Vedro
 Pravac vetra SSZ
Vetar: SSZ 7 km/h
Temperatura: 24°C
Tačka rose: 9°C
Vlažnost: 39%
Pritisak: 1013 hPa
Pregled: Vedro
Vidljivost: greater than 10 km
2020/07/15 17:45 LHPP 151745Z 33004KT CAVOK 24/09 Q1013
LHUD - Szeged, Hungary
Ažurirano: 04/07/2019 01:45
NOT Current
Vedro
Vedro
 Pravac vetra S
Vetar: S 7 km/h
Temperatura: 18°C
Tačka rose: 13°C
Vlažnost: 73%
Pritisak: 1019 hPa
Pregled: Vedro
Vidljivost: greater than 10 km
2019/07/03 23:45 LHUD 032345Z 35004KT CAVOK 18/13 Q1019
LRTR - Timisoara, Romania
Ažurirano: 16/07/2020 02:00
Vedro
Vedro
 Pravac vetra SI
Vetar: SI 6 km/h
Temperatura: 14°C
Tačka rose: 13°C
Vlažnost: 94%
Pritisak: 1013 hPa
Pregled: Vedro
Vidljivost: greater than 10 km
2020/07/16 00:00 LRTR 160000Z 05003KT 010V080 CAVOK 14/13 Q1013
 
LRCV - Craiova, Romania
Ažurirano: 16/07/2020 02:00
Vedro
Vedro
 Pravac vetra S
Vetar: S 6 km/h
Temperatura: 18°C
Tačka rose: 12°C
Vlažnost: 68%
Pritisak: 1012 hPa
Pregled: Vedro
Vidljivost: greater than 10 km
2020/07/16 00:00 LRCV 160000Z 36003KT CAVOK 18/12 Q1012
LBSF - Sofia, Bulgaria
Ažurirano: 16/07/2020 02:00
Mostly Cloudy
Mostly Cloudy
 Pravac vetra JI
Vetar: JI 9 km/h
Temperatura: 17°C
Tačka rose: 11°C
Vlažnost: 68%
Pritisak: 1015 hPa
Oblaci: Mostly Cloudy
Vidljivost: 10 km
Cloud details: Partly Cloudy 2103 m
Mostly Cloudy 2438 m
2020/07/16 00:00 LBSF 160000Z 14005KT 9999 SCT069 BKN080 17/11 Q1015 NOSIG
LWSK - Skoplje, Makedonija
Ažurirano: 16/07/2020 02:00
Vedro
Vedro
 Pravac vetra I
Vetar: I 7 km/h
Temperatura: 19°C
Tačka rose: 14°C
Vlažnost: 73%
Pritisak: 1014 hPa
Pregled: Vedro
Vidljivost: greater than 10 km
2020/07/16 00:00 LWSK 160000Z 09004KT CAVOK 19/14 Q1014 NOSIG
 
LYPG - Podgorica, Crna Gora
Ažurirano: 16/07/2020 02:00
Vedro
Vedro
 Pravac vetra varies
Vetar: varies 4 km/h
Temperatura: 21°C
Tačka rose: 12°C
Vlažnost: 57%
Pritisak: 1014 hPa
Pregled: Vedro
Vidljivost: greater than 10 km
2020/07/16 00:00 LYPG 160000Z VRB02KT CAVOK 21/12 Q1014 NOSIG
LQSA - Sarajevo, Bosna i Hercegovina
Ažurirano: 16/07/2020 02:00
Vedro
Vedro
 Pravac vetra J
Vetar: J 6 km/h
Temperatura: 12°C
Tačka rose: 10°C
Vlažnost: 88%
Pritisak: 1016 hPa
Pregled: Vedro
Vidljivost: greater than 10 km
2020/07/16 00:00 LQSA 160000Z 17003KT 140V270 CAVOK 12/10 Q1016
LDOS - Osijek, Hrvatksa
Ažurirano: 16/07/2020 02:00
Vedro
Vedro
 Pravac vetra SZ
Vetar: SZ 6 km/h
Temperatura: 13°C
Tačka rose: 12°C
Vlažnost: 94%
Pritisak: 1013 hPa
Pregled: Vedro
Vidljivost: greater than 10 km
2020/07/16 00:00 LDOS 160000Z 31003KT CAVOK 13/12 Q1013